Time;durP1;ratioP1;P1;durP2;ratioP2;P2;SDS_P1;SDS_P2;PMS_P1;PMS_P2;Temp;Humidity;BMP_temperature;BMP_pressure;BME280_temperature;BME280_humidity;BME280_pressure;Samples;Min_cycle;Max_cycle;Signal;HPM_P1;HPM_P2
2021/06/11 00:04:39;;;;;;;10.73;6.80;;;23.60;57.00;;;;;;10087001;28;20048;-58
2021/06/11 00:09:30;;;;;;;9.38;6.65;;;23.50;57.20;;;;;;10086336;28;20056;-58
2021/06/11 00:14:21;;;;;;;9.35;6.10;;;23.60;57.40;;;;;;10087395;28;20486;-58
2021/06/11 00:19:11;;;;;;;13.13;7.82;;;23.50;57.50;;;;;;10082790;28;20029;-59
2021/06/11 00:24:04;;;;;;;9.35;6.85;;;23.40;57.80;;;;;;10086770;28;20074;-57
2021/06/11 00:28:54;;;;;;;9.63;6.55;;;23.00;58.40;;;;;;10084942;28;20360;-59
2021/06/11 00:33:45;;;;;;;7.10;5.55;;;22.90;59.20;;;;;;10074365;28;20621;-59
2021/06/11 00:38:36;;;;;;;8.15;6.03;;;22.90;59.00;;;;;;10081368;28;20025;-58
2021/06/11 00:43:27;;;;;;;7.40;6.03;;;22.90;59.50;;;;;;10086324;28;20027;-58
2021/06/11 00:48:18;;;;;;;7.22;5.82;;;22.80;59.80;;;;;;10084740;28;20037;-57
2021/06/11 00:53:09;;;;;;;9.60;5.45;;;22.60;60.10;;;;;;10084273;28;20033;-57
2021/06/11 00:58:00;;;;;;;7.40;5.22;;;22.60;60.20;;;;;;10087149;28;20091;-58
2021/06/11 01:02:51;;;;;;;7.57;5.97;;;22.60;60.20;;;;;;10083438;28;20459;-59
2021/06/11 01:07:47;;;;;;;10.00;5.65;;;22.60;60.30;;;;;;10086955;28;20044;-59
2021/06/11 01:12:39;;;;;;;7.18;5.55;;;22.60;60.50;;;;;;10082662;28;20033;-58
2021/06/11 01:17:34;;;;;;;7.85;5.65;;;22.40;60.60;;;;;;10086972;28;20565;-60
2021/06/11 01:22:36;;;;;;;8.73;5.00;;;22.50;60.80;;;;;;10083150;28;20531;-59
2021/06/11 01:27:29;;;;;;;7.68;5.97;;;22.40;60.80;;;;;;10083724;28;20037;-58
2021/06/11 01:32:20;;;;;;;8.45;6.10;;;22.40;60.80;;;;;;10083020;28;20026;-58
2021/06/11 01:37:19;;;;;;;7.60;5.88;;;22.30;60.80;;;;;;10082255;28;20099;-60
2021/06/11 01:42:11;;;;;;;8.40;6.45;;;22.30;61.00;;;;;;10083890;28;20212;-58
2021/06/11 01:47:02;;;;;;;6.32;5.43;;;22.40;60.80;;;;;;10082244;28;20535;-57
2021/06/11 01:51:56;;;;;;;6.65;5.15;;;22.40;61.00;;;;;;10083351;28;20120;-59
2021/06/11 01:56:47;;;;;;;9.02;6.78;;;22.40;61.10;;;;;;10082317;28;20038;-57
2021/06/11 02:01:40;;;;;;;9.23;6.78;;;22.30;61.10;;;;;;10084018;28;20487;-58
2021/06/11 02:06:32;;;;;;;9.35;6.75;;;22.20;61.50;;;;;;10081453;28;20554;-58
2021/06/11 02:11:23;;;;;;;10.40;6.40;;;22.20;61.60;;;;;;10083630;28;20418;-57
2021/06/11 02:16:15;;;;;;;9.40;6.20;;;22.20;61.60;;;;;;10082525;28;20148;-59
2021/06/11 02:21:07;;;;;;;9.00;6.90;;;22.10;61.90;;;;;;10082360;28;20116;-59
2021/06/11 02:25:58;;;;;;;10.05;6.60;;;22.00;62.40;;;;;;10081464;28;20135;-58
2021/06/11 02:30:49;;;;;;;9.68;6.82;;;22.00;62.80;;;;;;10080706;28;20123;-56
2021/06/11 02:35:40;;;;;;;8.40;6.22;;;21.70;63.20;;;;;;10081560;28;20041;-59
2021/06/11 02:40:31;;;;;;;10.05;6.40;;;21.70;63.60;;;;;;10083866;28;20287;-58
2021/06/11 02:45:27;;;;;;;9.63;6.95;;;21.70;63.90;;;;;;10082961;28;20513;-58
2021/06/11 02:50:23;;;;;;;9.68;6.80;;;21.60;63.80;;;;;;10079940;28;20029;-58
2021/06/11 02:55:16;;;;;;;14.82;6.43;;;21.60;64.30;;;;;;10080631;28;20063;-58
2021/06/11 03:00:10;;;;;;;7.10;5.78;;;21.50;64.40;;;;;;10087583;28;20025;-58
2021/06/11 03:05:01;;;;;;;9.98;7.50;;;21.50;64.40;;;;;;10089576;28;20029;-58
2021/06/11 03:09:57;;;;;;;11.20;6.88;;;21.50;64.40;;;;;;10087343;28;20045;-58
2021/06/11 03:14:49;;;;;;;8.15;6.13;;;21.40;64.80;;;;;;10089368;28;20035;-59
2021/06/11 03:19:44;;;;;;;7.57;5.60;;;21.40;65.00;;;;;;10088621;28;20031;-57
2021/06/11 03:24:51;;;;;;;7.10;5.90;;;21.40;64.90;;;;;;10088356;28;20083;-57
2021/06/11 03:29:49;;;;;;;9.25;6.50;;;21.40;65.10;;;;;;10085891;28;20053;-59
2021/06/11 03:34:44;;;;;;;8.95;6.70;;;21.30;65.10;;;;;;10086655;28;20574;-59
2021/06/11 03:39:41;;;;;;;8.32;6.63;;;21.30;65.20;;;;;;10088128;28;20415;-58
2021/06/11 03:44:33;;;;;;;8.70;6.15;;;21.20;65.50;;;;;;10086605;28;20033;-59
2021/06/11 03:49:27;;;;;;;9.82;6.22;;;21.20;65.40;;;;;;10089943;28;20033;-58
2021/06/11 03:54:20;;;;;;;8.90;6.97;;;21.20;65.40;;;;;;10086713;28;20044;-58
2021/06/11 03:59:14;;;;;;;9.23;6.47;;;21.20;66.00;;;;;;10089515;28;20394;-61
2021/06/11 04:04:06;;;;;;;8.48;7.05;;;21.20;66.50;;;;;;10085007;28;20438;-59
2021/06/11 04:09:06;;;;;;;9.95;6.80;;;21.20;66.80;;;;;;10087653;28;20085;-57
2021/06/11 04:14:00;;;;;;;8.32;6.05;;;21.10;66.90;;;;;;10083883;28;20068;-59
2021/06/11 04:18:57;;;;;;;9.27;7.03;;;21.20;66.90;;;;;;10088201;28;20116;-57
2021/06/11 04:23:50;;;;;;;11.23;6.50;;;21.20;66.70;;;;;;10084986;28;20159;-59
2021/06/11 04:28:43;;;;;;;8.05;5.75;;;21.00;66.90;;;;;;10086006;28;20048;-58
2021/06/11 04:33:35;;;;;;;10.85;6.57;;;21.10;67.00;;;;;;10083488;28;20518;-58
2021/06/11 04:38:26;;;;;;;9.05;6.55;;;21.20;66.70;;;;;;10085031;28;20316;-60
2021/06/11 04:43:18;;;;;;;8.15;6.05;;;21.10;66.80;;;;;;10085493;28;20035;-58
2021/06/11 04:48:10;;;;;;;9.77;7.15;;;21.20;66.80;;;;;;10083243;28;20029;-60
2021/06/11 04:53:01;;;;;;;8.88;7.22;;;21.20;66.90;;;;;;10084621;28;20063;-60
2021/06/11 04:57:54;;;;;;;9.30;6.20;;;21.10;67.00;;;;;;10081309;28;20084;-60
2021/06/11 05:02:44;;;;;;;10.95;6.78;;;21.10;67.40;;;;;;10086052;28;20112;-59
2021/06/11 05:07:36;;;;;;;9.55;6.47;;;21.00;67.40;;;;;;10079214;28;20327;-58
2021/06/11 05:12:26;;;;;;;10.27;6.82;;;21.10;67.60;;;;;;10083412;28;20043;-60
2021/06/11 05:17:17;;;;;;;9.23;6.47;;;21.20;67.60;;;;;;10084751;28;20083;-58
2021/06/11 05:22:08;;;;;;;7.80;5.90;;;21.30;67.40;;;;;;10081645;28;20498;-58
2021/06/11 05:26:59;;;;;;;9.57;6.53;;;21.30;67.50;;;;;;10083233;28;20039;-59
2021/06/11 05:31:49;;;;;;;10.40;7.28;;;21.40;67.30;;;;;;10082990;28;20079;-59
2021/06/11 05:36:40;;;;;;;11.68;6.70;;;21.40;67.40;;;;;;10084866;28;20044;-58
2021/06/11 05:41:31;;;;;;;10.10;6.88;;;21.50;67.70;;;;;;10082487;28;20021;-60
2021/06/11 05:46:22;;;;;;;10.48;6.82;;;21.50;67.60;;;;;;10085015;28;20036;-59
2021/06/11 05:51:12;;;;;;;10.93;7.07;;;21.70;67.40;;;;;;10083146;28;20454;-58
2021/06/11 05:56:04;;;;;;;11.45;8.13;;;21.60;67.50;;;;;;10081804;28;20065;-59
2021/06/11 06:00:55;;;;;;;12.02;7.65;;;21.50;67.90;;;;;;10084034;28;20064;-60
2021/06/11 06:05:45;;;;;;;11.77;8.05;;;21.40;68.40;;;;;;10081084;28;20089;-58
2021/06/11 06:10:36;;;;;;;10.98;7.18;;;21.40;68.40;;;;;;10083631;28;20087;-58
2021/06/11 06:15:27;;;;;;;13.50;7.57;;;21.50;68.20;;;;;;10082626;28;20029;-60
2021/06/11 06:20:18;;;;;;;13.85;8.23;;;21.60;68.10;;;;;;10083471;28;20039;-60
2021/06/11 06:25:10;;;;;;;12.57;7.82;;;21.70;68.00;;;;;;10078576;28;20040;-59
2021/06/11 06:30:02;;;;;;;10.98;9.13;;;21.80;68.10;;;;;;10082505;28;20135;-60
2021/06/11 06:34:53;;;;;;;12.68;8.82;;;21.80;68.10;;;;;;10078636;28;20517;-59
2021/06/11 06:39:44;;;;;;;13.60;9.43;;;21.80;68.20;;;;;;10081075;28;20021;-61
2021/06/11 06:44:36;;;;;;;12.95;9.65;;;22.00;68.10;;;;;;10081150;28;20029;-60
2021/06/11 06:49:27;;;;;;;14.57;8.70;;;22.00;67.90;;;;;;10080348;28;20072;-60
2021/06/11 06:54:18;;;;;;;13.57;8.90;;;22.20;67.90;;;;;;10082729;28;20411;-61
2021/06/11 06:59:09;;;;;;;11.57;8.85;;;22.30;67.70;;;;;;10078144;28;20083;-60
2021/06/11 07:04:01;;;;;;;12.10;8.82;;;22.30;67.70;;;;;;10081754;28;20437;-59
2021/06/11 07:08:53;;;;;;;12.20;8.23;;;22.40;67.90;;;;;;10079984;28;20051;-59
2021/06/11 07:13:43;;;;;;;13.15;9.18;;;22.40;67.70;;;;;;10079798;28;20033;-57
2021/06/11 07:18:34;;;;;;;11.60;9.15;;;22.50;67.50;;;;;;10081014;28;20756;-60
2021/06/11 07:23:25;;;;;;;12.43;9.13;;;22.60;67.50;;;;;;10080013;28;20029;-59
2021/06/11 07:28:16;;;;;;;9.70;8.02;;;22.70;67.10;;;;;;10082296;28;20076;-58
2021/06/11 07:33:07;;;;;;;11.70;8.70;;;22.70;67.10;;;;;;10078612;28;20024;-57
2021/06/11 07:37:58;;;;;;;12.85;7.68;;;23.00;66.50;;;;;;10082569;28;20128;-60
2021/06/11 07:42:48;;;;;;;12.10;8.27;;;23.10;66.40;;;;;;10081254;28;20078;-58
2021/06/11 07:47:40;;;;;;;15.07;9.75;;;23.30;66.10;;;;;;10087417;28;20485;-59
2021/06/11 07:52:31;;;;;;;13.63;9.00;;;23.20;66.10;;;;;;10086290;28;20356;-60
2021/06/11 07:57:22;;;;;;;13.05;10.15;;;23.30;66.00;;;;;;10087419;28;20513;-59
2021/06/11 08:02:14;;;;;;;13.48;9.40;;;23.40;65.80;;;;;;10088237;28;20036;-59
2021/06/11 08:07:05;;;;;;;14.75;9.18;;;23.50;65.60;;;;;;10084696;28;20049;-60
2021/06/11 08:11:56;;;;;;;16.08;9.93;;;23.70;65.20;;;;;;10088524;28;20017;-59
2021/06/11 08:16:47;;;;;;;13.38;9.10;;;23.80;64.80;;;;;;10084074;28;20040;-58
2021/06/11 08:21:37;;;;;;;14.45;8.77;;;23.80;64.70;;;;;;10088038;28;20119;-58
2021/06/11 08:26:28;;;;;;;13.38;9.48;;;24.10;64.10;;;;;;10085010;28;20041;-58
2021/06/11 08:31:19;;;;;;;15.38;9.90;;;24.20;63.80;;;;;;10087086;28;20049;-57
2021/06/11 08:36:10;;;;;;;15.32;10.73;;;24.20;63.90;;;;;;10084120;28;20244;-58
2021/06/11 08:41:01;;;;;;;17.13;11.00;;;24.40;63.30;;;;;;10083233;28;20478;-57
2021/06/11 08:45:53;;;;;;;12.73;9.10;;;24.60;62.50;;;;;;10086237;28;20039;-59
2021/06/11 08:50:44;;;;;;;16.10;10.65;;;24.70;62.50;;;;;;10083348;28;20024;-58
2021/06/11 08:55:36;;;;;;;15.23;11.10;;;25.00;61.80;;;;;;10082722;28;20037;-58
2021/06/11 09:00:28;;;;;;;12.60;10.43;;;25.10;62.30;;;;;;10082476;28;20070;-58
2021/06/11 09:05:19;;;;;;;11.60;9.45;;;25.00;61.60;;;;;;10087142;28;20635;-58
2021/06/11 09:10:10;;;;;;;11.38;7.90;;;25.20;61.10;;;;;;10082961;28;20076;-59
2021/06/11 09:15:08;;;;;;;12.23;8.57;;;25.30;60.50;;;;;;10085488;28;20503;-58
2021/06/11 09:20:10;;;;;;;12.05;7.93;;;25.30;59.80;;;;;;10086070;28;20037;-59
2021/06/11 09:25:43;;;;;;;12.18;8.30;;;25.30;59.40;;;;;;10083531;28;20061;-61
2021/06/11 09:30:37;;;;;;;9.43;6.80;;;25.40;58.50;;;;;;10081584;28;20036;-59
2021/06/11 09:35:40;;;;;;;11.63;7.60;;;25.60;58.20;;;;;;10082964;28;20181;-60
2021/06/11 09:40:31;;;;;;;7.35;6.22;;;25.60;57.60;;;;;;10081998;28;20029;-57
2021/06/11 09:45:22;;;;;;;9.40;6.18;;;25.60;56.90;;;;;;10083891;28;20065;-59
2021/06/11 09:50:15;;;;;;;8.60;6.18;;;25.70;56.20;;;;;;10085220;28;20697;-59
2021/06/11 09:55:21;;;;;;;9.60;7.43;;;25.80;55.40;;;;;;10082478;28;20095;-61
2021/06/11 10:00:12;;;;;;;8.88;6.32;;;26.10;54.70;;;;;;10079904;28;20130;-61
2021/06/11 10:05:03;;;;;;;5.70;5.13;;;26.10;54.10;;;;;;10081599;28;20053;-58
2021/06/11 10:09:55;;;;;;;6.85;5.38;;;26.10;53.50;;;;;;10081464;28;20041;-61
2021/06/11 10:14:46;;;;;;;8.57;5.07;;;26.30;52.90;;;;;;10082818;28;20033;-60
2021/06/11 10:19:38;;;;;;;7.22;5.43;;;26.40;52.50;;;;;;10083022;28;20123;-59
2021/06/11 10:24:29;;;;;;;7.63;5.35;;;26.40;52.00;;;;;;10081291;28;20033;-58
2021/06/11 10:29:21;;;;;;;7.20;4.72;;;26.60;51.50;;;;;;10082821;28;20444;-59
2021/06/11 10:34:13;;;;;;;5.15;3.88;;;26.50;51.10;;;;;;10076459;28;20515;-58
2021/06/11 10:39:09;;;;;;;5.65;3.85;;;26.60;50.70;;;;;;10082218;28;20475;-59
2021/06/11 10:44:00;;;;;;;5.35;4.65;;;26.90;49.80;;;;;;10081180;28;20078;-59
2021/06/11 10:48:57;;;;;;;5.40;3.35;;;26.90;49.20;;;;;;10082217;28;20040;-58
2021/06/11 10:53:47;;;;;;;4.78;4.22;;;26.90;48.20;;;;;;10078355;28;20221;-58
2021/06/11 10:58:40;;;;;;;5.00;3.47;;;26.90;48.10;;;;;;10081531;28;20016;-57
2021/06/11 11:03:32;;;;;;;4.72;2.90;;;27.10;48.40;;;;;;10082080;28;20198;-58
2021/06/11 11:08:49;;;;;;;7.28;4.45;;;27.20;46.90;;;;;;10080022;28;20045;-60
2021/06/11 11:13:39;;;;;;;4.57;3.28;;;27.40;46.30;;;;;;10082558;28;20416;-59
2021/06/11 11:18:33;;;;;;;3.75;3.25;;;27.40;46.50;;;;;;10083045;28;20090;-58
2021/06/11 11:23:26;;;;;;;6.33;4.70;;;27.50;46.10;;;;;;10089693;28;20021;-60
2021/06/11 11:28:18;;;;;;;6.95;4.88;;;27.60;45.50;;;;;;10086808;28;20508;-59
2021/06/11 11:33:10;;;;;;;5.85;4.80;;;27.50;45.90;;;;;;10088961;28;20120;-57
2021/06/11 11:38:03;;;;;;;8.60;6.18;;;27.70;46.00;;;;;;10086181;28;20036;-58
2021/06/11 11:42:56;;;;;;;6.78;5.32;;;27.80;45.80;;;;;;10089697;28;20033;-59
2021/06/11 11:47:48;;;;;;;7.63;5.67;;;28.20;45.60;;;;;;10088832;28;20029;-59
2021/06/11 11:52:39;;;;;;;6.63;5.45;;;28.20;45.30;;;;;;10087292;28;20509;-59
2021/06/11 11:57:30;;;;;;;9.00;5.15;;;28.40;45.00;;;;;;10087732;28;20048;-58
2021/06/11 12:02:21;;;;;;;6.32;4.63;;;28.40;44.30;;;;;;10086530;28;20078;-59
2021/06/11 12:07:12;;;;;;;6.30;4.20;;;28.60;44.00;;;;;;10088584;28;20043;-59
2021/06/11 12:12:03;;;;;;;6.70;4.38;;;29.00;43.40;;;;;;10086319;28;20037;-58
2021/06/11 12:16:54;;;;;;;3.58;3.28;;;29.20;42.30;;;;;;10087225;28;20028;-59
2021/06/11 12:21:45;;;;;;;3.58;3.15;;;29.10;41.90;;;;;;10085382;28;21013;-59
2021/06/11 12:26:36;;;;;;;4.30;3.67;;;29.60;41.50;;;;;;10088381;28;20404;-58
2021/06/11 12:31:28;;;;;;;4.65;3.97;;;29.80;41.10;;;;;;10085493;28;20526;-60
2021/06/11 12:36:19;;;;;;;3.97;3.13;;;30.10;41.20;;;;;;10086413;28;20033;-59
2021/06/11 12:41:13;;;;;;;3.47;3.17;;;30.90;40.40;;;;;;10086915;28;20518;-59
2021/06/11 12:46:03;;;;;;;3.25;3.05;;;31.30;39.80;;;;;;10085498;28;20553;-60
2021/06/11 12:50:54;;;;;;;3.93;3.20;;;32.10;39.00;;;;;;10087608;28;20167;-59
2021/06/11 12:55:45;;;;;;;3.33;2.73;;;32.30;38.10;;;;;;10082803;28;20567;-59
2021/06/11 13:00:35;;;;;;;2.80;2.60;;;33.10;37.20;;;;;;10083808;28;20021;-61
2021/06/11 13:05:27;;;;;;;3.07;2.77;;;33.70;35.90;;;;;;10085140;28;20392;-60
2021/06/11 13:10:18;;;;;;;3.15;2.83;;;34.20;35.50;;;;;;10085571;28;20120;-59
2021/06/11 13:15:10;;;;;;;3.25;2.83;;;35.20;34.20;;;;;;10085311;28;20682;-58
2021/06/11 13:20:01;;;;;;;4.22;3.25;;;35.60;33.40;;;;;;10084440;28;20416;-59
2021/06/11 13:24:51;;;;;;;3.65;3.35;;;35.60;33.10;;;;;;10086381;28;20033;-59
2021/06/11 13:29:42;;;;;;;;;;;36.20;32.20;;;;;;10084364;28;20047;-60
2021/06/11 13:34:33;;;;;;;3.43;3.13;;;35.90;31.70;;;;;;10086715;28;19916;-60
2021/06/11 13:39:24;;;;;;;3.83;3.53;;;37.10;31.50;;;;;;10082415;28;20088;-60
2021/06/11 13:44:14;;;;;;;3.42;3.17;;;37.40;31.10;;;;;;10084441;28;20041;-60
2021/06/11 13:49:05;;;;;;;3.85;2.83;;;37.60;30.60;;;;;;10082396;28;20356;-59
2021/06/11 13:53:56;;;;;;;3.47;3.17;;;38.80;29.70;;;;;;10082064;28;20025;-58
2021/06/11 13:58:46;;;;;;;2.88;2.67;;;39.10;29.50;;;;;;10079857;28;20017;-58
2021/06/11 14:03:37;;;;;;;3.38;2.67;;;38.10;29.40;;;;;;10083464;28;20028;-60
2021/06/11 14:08:28;;;;;;;2.97;2.67;;;38.40;29.30;;;;;;10082411;28;20045;-58
2021/06/11 14:13:19;;;;;;;3.05;2.42;;;39.10;28.60;;;;;;10078998;28;20039;-58
2021/06/11 14:18:10;;;;;;;2.63;2.40;;;38.40;28.60;;;;;;10082585;28;20530;-58
2021/06/11 14:23:01;;;;;;;3.13;2.83;;;38.10;27.80;;;;;;10079088;28;20053;-58
2021/06/11 14:27:51;;;;;;;6.88;2.60;;;38.10;27.50;;;;;;10081663;28;20029;-61
2021/06/11 14:32:42;;;;;;;2.45;2.28;;;39.10;27.10;;;;;;10081300;28;20029;-58
2021/06/11 14:37:34;;;;;;;3.35;3.05;;;39.80;26.60;;;;;;10082301;28;20419;-61
2021/06/11 14:42:25;;;;;;;5.85;3.67;;;39.30;26.70;;;;;;10080560;28;20089;-59
2021/06/11 14:47:15;;;;;;;3.03;2.80;;;39.30;26.30;;;;;;10081315;28;20032;-59
2021/06/11 14:52:08;;;;;;;4.75;2.60;;;39.80;25.90;;;;;;10078190;28;20029;-59
2021/06/11 14:57:00;;;;;;;2.70;2.35;;;39.70;25.90;;;;;;10077411;28;20533;-59
2021/06/11 15:01:50;;;;;;;3.15;2.80;;;39.40;25.60;;;;;;10081742;28;20772;-61
2021/06/11 15:06:41;;;;;;;4.30;2.60;;;39.00;25.80;;;;;;10076884;28;107075;-61
2021/06/11 15:11:32;;;;;;;3.10;2.80;;;39.50;25.40;;;;;;10082284;28;20041;-60
2021/06/11 15:16:23;;;;;;;3.25;3.03;;;38.60;25.80;;;;;;10082105;28;20515;-59
2021/06/11 15:21:13;;;;;;;3.00;2.70;;;39.60;25.40;;;;;;10077489;28;20236;-61
2021/06/11 15:26:04;;;;;;;2.60;2.40;;;39.00;25.30;;;;;;10082325;28;20019;-59
2021/06/11 15:30:55;;;;;;;2.63;2.42;;;38.50;25.40;;;;;;10080366;28;20029;-59
2021/06/11 15:35:46;;;;;;;3.42;2.45;;;38.40;25.10;;;;;;10082198;28;20065;-59
2021/06/11 15:40:38;;;;;;;4.47;2.65;;;38.70;24.60;;;;;;10080733;28;20117;-59
2021/06/11 15:45:29;;;;;;;4.38;3.97;;;38.80;24.50;;;;;;10082006;28;20041;-60
2021/06/11 15:50:20;;;;;;;2.75;2.55;;;39.40;24.10;;;;;;10079370;28;20029;-59
2021/06/11 15:55:11;;;;;;;2.78;2.58;;;40.20;23.70;;;;;;10082377;28;20094;-59
2021/06/11 16:00:03;;;;;;;3.55;2.42;;;38.90;23.80;;;;;;10080705;28;20044;-58
2021/06/11 16:04:54;;;;;;;3.42;3.13;;;39.10;23.90;;;;;;10083803;28;20025;-61
2021/06/11 16:09:45;;;;;;;3.88;3.05;;;39.20;24.10;;;;;;10088642;28;20418;-62
2021/06/11 16:14:36;;;;;;;4.75;2.88;;;38.90;24.40;;;;;;10086844;28;20025;-60
2021/06/11 16:19:27;;;;;;;3.10;2.70;;;39.90;24.10;;;;;;10088754;28;20037;-58
2021/06/11 16:24:18;;;;;;;2.70;2.50;;;39.80;24.10;;;;;;10085655;28;20036;-58
2021/06/11 16:29:09;;;;;;;2.92;2.38;;;40.00;23.70;;;;;;10087514;28;20033;-59
2021/06/11 16:34:00;;;;;;;2.67;2.47;;;41.20;23.10;;;;;;10087681;28;20048;-59
2021/06/11 16:38:51;;;;;;;2.60;2.40;;;42.00;22.80;;;;;;10085554;28;20039;-59
2021/06/11 16:43:42;;;;;;;2.90;2.35;;;41.80;22.50;;;;;;10085238;28;20450;-59
2021/06/11 16:48:33;;;;;;;3.17;2.88;;;41.70;22.40;;;;;;10083417;28;20086;-60
2021/06/11 16:53:24;;;;;;;3.35;2.88;;;43.90;21.80;;;;;;10086729;28;20085;-59
2021/06/11 16:58:16;;;;;;;3.15;2.95;;;43.80;21.80;;;;;;10083897;28;20421;-58
2021/06/11 17:03:06;;;;;;;2.83;2.63;;;42.00;22.20;;;;;;10087288;28;20025;-59
2021/06/11 17:07:57;;;;;;;3.13;2.78;;;41.50;22.50;;;;;;10084196;28;20045;-59
2021/06/11 17:12:50;;;;;;;2.75;2.55;;;42.70;22.20;;;;;;10085958;28;20017;-61
2021/06/11 17:17:41;;;;;;;3.63;2.72;;;41.90;22.60;;;;;;10082860;28;20698;-60
2021/06/11 17:22:45;;;;;;;3.83;2.80;;;42.10;22.60;;;;;;10081245;28;20024;-60
2021/06/11 17:27:37;;;;;;;3.40;3.10;;;41.90;22.50;;;;;;10084912;28;20534;-58
2021/06/11 17:32:33;;;;;;;3.17;2.85;;;41.10;23.10;;;;;;10084332;28;20041;-59
2021/06/11 17:37:31;;;;;;;3.17;2.88;;;40.60;23.70;;;;;;10081331;28;20459;-59
2021/06/11 17:42:21;;;;;;;3.35;3.05;;;40.00;23.90;;;;;;10083647;28;20516;-58
2021/06/11 17:47:12;;;;;;;2.92;2.72;;;39.40;24.40;;;;;;10084499;28;20389;-60
2021/06/11 17:52:06;;;;;;;3.22;2.90;;;38.50;24.70;;;;;;10082433;28;20079;-59
2021/06/11 17:56:58;;;;;;;2.85;2.53;;;38.50;24.70;;;;;;10079341;28;20441;-59
2021/06/11 18:02:05;;;;;;;;;;;37.90;25.10;;;;;;10085594;28;20120;-59
2021/06/11 18:07:01;;;;;;;7.53;3.03;;;36.30;25.80;;;;;;10083313;28;19916;-59
2021/06/11 18:11:52;;;;;;;4.07;3.67;;;34.70;27.20;;;;;;10078842;28;20449;-58
2021/06/11 18:16:43;;;;;;;4.22;3.03;;;33.40;27.70;;;;;;10084501;28;20057;-59
2021/06/11 18:21:39;;;;;;;3.40;3.10;;;33.10;27.80;;;;;;10080821;28;20031;-60
2021/06/11 18:26:30;;;;;;;3.92;3.20;;;32.60;28.30;;;;;;10083092;28;20037;-57
2021/06/11 18:31:21;;;;;;;4.50;3.83;;;32.30;28.60;;;;;;10082993;28;20104;-61
2021/06/11 18:36:23;;;;;;;3.47;3.17;;;32.10;28.90;;;;;;10080673;28;20044;-58
2021/06/11 18:41:34;;;;;;;5.43;4.63;;;31.80;29.10;;;;;;10082772;28;20079;-59
2021/06/11 18:46:25;;;;;;;5.00;3.55;;;31.50;30.10;;;;;;10082832;28;20021;-59
2021/06/11 18:51:22;;;;;;;4.28;3.80;;;31.60;29.70;;;;;;10082904;28;20514;-59
2021/06/11 18:56:14;;;;;;;4.82;3.58;;;31.60;29.90;;;;;;10079680;28;20033;-59
2021/06/11 19:01:05;;;;;;;5.03;3.85;;;31.40;30.00;;;;;;10083887;28;20049;-61
2021/06/11 19:06:12;;;;;;;3.95;3.55;;;31.00;31.00;;;;;;10079196;28;20585;-60
2021/06/11 19:11:22;;;;;;;4.85;4.15;;;30.80;33.30;;;;;;10082559;28;20091;-59
2021/06/11 19:16:12;;;;;;;4.32;3.92;;;30.60;34.30;;;;;;10078432;28;20040;-59
2021/06/11 19:21:10;;;;;;;4.93;3.55;;;30.50;33.20;;;;;;10082340;28;20025;-60
2021/06/11 19:26:12;;;;;;;4.90;3.58;;;30.30;34.70;;;;;;10080858;28;20074;-59
2021/06/11 19:31:03;;;;;;;4.57;3.80;;;30.00;37.00;;;;;;10080566;28;20032;-58
2021/06/11 19:35:56;;;;;;;5.15;4.35;;;29.70;35.70;;;;;;10081613;28;20040;-58
2021/06/11 19:40:51;;;;;;;5.07;4.17;;;29.50;36.60;;;;;;10085258;28;20056;-58
2021/06/11 19:45:41;;;;;;;8.07;4.38;;;29.50;36.90;;;;;;10087404;28;20056;-58
2021/06/11 19:50:42;;;;;;;5.43;4.93;;;29.40;37.20;;;;;;10088829;28;20118;-59
2021/06/11 19:55:33;;;;;;;8.93;5.78;;;29.40;37.40;;;;;;10089333;28;20127;-59
2021/06/11 20:00:24;;;;;;;9.57;5.80;;;29.40;37.50;;;;;;10085889;28;20047;-60
2021/06/11 20:05:15;;;;;;;5.40;4.68;;;29.30;37.90;;;;;;10083451;28;20017;-59
2021/06/11 20:10:07;;;;;;;5.63;4.90;;;29.10;38.50;;;;;;10083223;28;20048;-59
2021/06/11 20:14:58;;;;;;;8.77;5.35;;;29.00;38.80;;;;;;10087331;28;20468;-59
2021/06/11 20:19:49;;;;;;;7.20;4.50;;;29.10;39.20;;;;;;10085021;28;20468;-58
2021/06/11 20:24:41;;;;;;;5.75;4.70;;;28.90;39.60;;;;;;10088132;28;20040;-57
2021/06/11 20:29:32;;;;;;;6.07;4.30;;;28.90;39.80;;;;;;10087316;28;20383;-58
2021/06/11 20:34:23;;;;;;;7.18;4.72;;;28.80;39.90;;;;;;10086825;28;20138;-58
2021/06/11 20:39:13;;;;;;;6.70;5.07;;;28.80;40.20;;;;;;10086238;28;20107;-57
2021/06/11 20:44:04;;;;;;;5.10;4.50;;;28.70;40.50;;;;;;10084988;28;20065;-58
2021/06/11 20:48:55;;;;;;;4.80;4.40;;;28.60;40.90;;;;;;10087876;28;20569;-58
2021/06/11 20:53:53;;;;;;;12.20;7.80;;;28.50;41.10;;;;;;10084367;28;20041;-58
2021/06/11 20:58:45;;;;;;;5.07;4.57;;;28.50;41.40;;;;;;10087073;28;20051;-58
2021/06/11 21:03:36;;;;;;;5.35;4.80;;;28.50;41.20;;;;;;10083617;28;20033;-59
2021/06/11 21:08:26;;;;;;;7.40;5.13;;;28.50;41.40;;;;;;10084953;28;20037;-59
2021/06/11 21:13:17;;;;;;;5.82;4.90;;;28.40;41.60;;;;;;10085243;28;20031;-60
2021/06/11 21:18:08;;;;;;;6.93;5.18;;;28.30;41.70;;;;;;10085298;28;20037;-59
2021/06/11 21:22:59;;;;;;;11.27;7.72;;;28.30;42.00;;;;;;10084285;28;20036;-59
2021/06/11 21:27:50;;;;;;;5.85;4.45;;;28.10;42.10;;;;;;10082870;28;20032;-58
2021/06/11 21:32:41;;;;;;;6.60;5.63;;;28.30;42.20;;;;;;10085965;28;20024;-59
2021/06/11 21:37:32;;;;;;;7.50;6.30;;;28.20;42.40;;;;;;10082555;28;20044;-59
2021/06/11 21:42:23;;;;;;;12.48;7.93;;;28.10;42.50;;;;;;10085737;28;20017;-59
2021/06/11 21:47:13;;;;;;;10.80;7.47;;;27.90;43.30;;;;;;10081331;28;20368;-60
2021/06/11 21:52:05;;;;;;;10.60;7.60;;;27.90;43.50;;;;;;10085709;28;20029;-58
2021/06/11 21:56:55;;;;;;;9.10;6.20;;;27.90;43.60;;;;;;10081799;28;20511;-59
2021/06/11 22:01:46;;;;;;;9.55;6.95;;;27.80;43.50;;;;;;10082086;28;20040;-59
2021/06/11 22:06:37;;;;;;;6.60;5.90;;;27.60;44.20;;;;;;10083164;28;20098;-59
2021/06/11 22:11:28;;;;;;;8.98;5.80;;;27.30;44.80;;;;;;10082283;28;20017;-59
2021/06/11 22:16:18;;;;;;;9.00;6.50;;;27.20;45.40;;;;;;10084067;28;20037;-59
2021/06/11 22:21:09;;;;;;;6.47;5.88;;;27.00;45.80;;;;;;10083072;28;20110;-59
2021/06/11 22:26:01;;;;;;;7.30;6.13;;;26.70;46.50;;;;;;10083353;28;20395;-58
2021/06/11 22:30:53;;;;;;;10.05;6.50;;;26.70;46.50;;;;;;10075738;28;20048;-59
2021/06/11 22:35:45;;;;;;;7.03;5.88;;;26.50;47.00;;;;;;10084259;28;20040;-59
2021/06/11 22:40:37;;;;;;;7.20;4.75;;;26.70;47.20;;;;;;10082862;28;20028;-58
2021/06/11 22:45:28;;;;;;;8.73;5.75;;;26.80;47.00;;;;;;10082253;28;20488;-58
2021/06/11 22:50:22;;;;;;;4.82;4.28;;;26.40;47.30;;;;;;10078343;28;20053;-58
2021/06/11 22:55:14;;;;;;;6.90;5.13;;;26.30;47.70;;;;;;10081012;28;20033;-58
2021/06/11 23:00:07;;;;;;;5.55;4.18;;;26.20;47.60;;;;;;10079346;28;20033;-58
2021/06/11 23:04:58;;;;;;;6.18;3.95;;;26.20;47.60;;;;;;10080788;28;20211;-59
2021/06/11 23:09:49;;;;;;;6.90;4.72;;;26.30;47.60;;;;;;10084367;28;20306;-58
2021/06/11 23:14:39;;;;;;;5.22;3.65;;;26.00;47.80;;;;;;10082352;28;20400;-59
2021/06/11 23:19:30;;;;;;;4.35;3.95;;;25.80;48.20;;;;;;10087936;28;20037;-57
2021/06/11 23:24:21;;;;;;;5.30;4.80;;;25.80;48.20;;;;;;10087373;28;20094;-59
2021/06/11 23:29:12;;;;;;;4.60;4.13;;;25.90;47.90;;;;;;10088345;28;20033;-58
2021/06/11 23:34:02;;;;;;;5.50;3.80;;;25.80;47.90;;;;;;10087848;28;20393;-57
2021/06/11 23:38:53;;;;;;;4.10;3.42;;;25.50;48.40;;;;;;10088646;28;20044;-58
2021/06/11 23:43:44;;;;;;;5.53;3.80;;;25.30;48.50;;;;;;10089883;28;20031;-58
2021/06/11 23:48:35;;;;;;;5.70;3.45;;;25.20;48.80;;;;;;10087972;28;20036;-58
2021/06/11 23:53:26;;;;;;;4.57;3.40;;;25.30;48.70;;;;;;10088573;28;20044;-58
2021/06/11 23:58:16;;;;;;;4.55;3.60;;;25.30;48.60;;;;;;10087098;28;20033;-59
